Time;durP1;ratioP1;P1;durP2;ratioP2;P2;SDS_P1;SDS_P2;PMS_P1;PMS_P2;Temp;Humidity;BMP_temperature;BMP_pressure;BME280_temperature;BME280_humidity;BME280_pressure;Samples;Min_cycle;Max_cycle;Signal;HPM_P1;HPM_P2
2023/05/31 00:01:31;;;;;;;9.88;7.32;;;;;;;;;;5009080;28;20124;-59
2023/05/31 00:03:57;;;;;;;10.38;6.95;;;;;;;;;;5010499;28;20029;-60
2023/05/31 00:06:22;;;;;;;10.38;7.57;;;;;;;;;;5010752;28;20116;-60
2023/05/31 00:08:48;;;;;;;11.52;8.30;;;;;;;;;;5009060;28;20407;-60
2023/05/31 00:11:13;;;;;;;11.15;7.43;;;;;;;;;;5010636;28;20429;-60
2023/05/31 00:13:38;;;;;;;10.05;7.72;;;;;;;;;;5009686;28;20038;-60
2023/05/31 00:16:05;;;;;;;11.20;7.60;;;;;;;;;;5009427;28;20592;-60
2023/05/31 00:18:31;;;;;;;10.95;7.68;;;;;;;;;;5008792;28;20088;-59
2023/05/31 00:20:56;;;;;;;12.63;8.40;;;;;;;;;;5009823;28;20113;-60
2023/05/31 00:23:21;;;;;;;11.13;7.80;;;;;;;;;;5010312;28;20030;-59
2023/05/31 00:25:47;;;;;;;11.38;8.00;;;;;;;;;;5010877;28;20375;-60
2023/05/31 00:28:12;;;;;;;11.13;8.05;;;;;;;;;;5011074;28;20101;-59
2023/05/31 00:30:38;;;;;;;12.40;8.23;;;;;;;;;;5009663;28;20034;-60
2023/05/31 00:33:04;;;;;;;11.50;8.00;;;;;;;;;;5007485;28;20038;-60
2023/05/31 00:35:29;;;;;;;12.23;8.05;;;;;;;;;;5010042;28;20034;-59
2023/05/31 00:37:55;;;;;;;11.77;8.05;;;;;;;;;;5010839;28;20030;-59
2023/05/31 00:40:20;;;;;;;11.25;7.63;;;;;;;;;;5007404;28;20136;-59
2023/05/31 00:42:46;;;;;;;11.85;8.18;;;;;;;;;;5007389;28;20037;-60
2023/05/31 00:45:11;;;;;;;13.10;8.10;;;;;;;;;;5009017;28;20081;-59
2023/05/31 00:47:37;;;;;;;10.82;7.68;;;;;;;;;;5011004;28;20112;-59
2023/05/31 00:50:04;;;;;;;10.68;7.70;;;;;;;;;;5010378;28;20482;-59
2023/05/31 00:52:31;;;;;;;11.88;7.85;;;;;;;;;;5013254;28;20041;-60
2023/05/31 00:54:56;;;;;;;11.40;8.20;;;;;;;;;;5014229;28;20026;-60
2023/05/31 00:57:22;;;;;;;12.68;8.48;;;;;;;;;;5011864;28;20084;-60
2023/05/31 00:59:48;;;;;;;12.32;8.43;;;;;;;;;;5011536;28;20030;-59
2023/05/31 01:02:17;;;;;;;11.73;8.05;;;;;;;;;;5014176;28;20037;-60
2023/05/31 01:04:42;;;;;;;11.35;7.72;;;;;;;;;;5014683;28;20042;-60
2023/05/31 01:07:09;;;;;;;11.52;8.35;;;;;;;;;;5013996;28;20610;-60
2023/05/31 01:09:36;;;;;;;10.93;8.15;;;;;;;;;;5012576;28;20038;-59
2023/05/31 01:12:28;;;;;;;14.23;7.95;;;;;;;;;;5012606;28;20049;-59
2023/05/31 01:15:20;;;;;;;10.20;7.82;;;;;;;;;;5013814;28;20038;-60
2023/05/31 01:17:51;;;;;;;13.43;8.23;;;;;;;;;;5010577;28;20100;-60
2023/05/31 01:20:19;;;;;;;12.00;8.45;;;;;;;;;;5013022;28;20088;-60
2023/05/31 01:22:57;;;;;;;12.77;7.95;;;;;;;;;;5012153;28;20045;-59
2023/05/31 01:25:26;;;;;;;13.40;8.38;;;;;;;;;;5013441;28;20030;-60
2023/05/31 01:27:54;;;;;;;12.20;8.18;;;;;;;;;;5011222;28;20069;-60
2023/05/31 01:30:21;;;;;;;11.68;8.27;;;;;;;;;;5012770;28;20056;-59
2023/05/31 01:32:48;;;;;;;12.02;8.38;;;;;;;;;;5012662;28;20038;-60
2023/05/31 01:35:14;;;;;;;13.48;8.68;;;;;;;;;;5014134;28;20037;-60
2023/05/31 01:37:40;;;;;;;12.57;8.30;;;;;;;;;;5011683;28;20036;-59
2023/05/31 01:40:06;;;;;;;11.45;8.10;;;;;;;;;;5010553;28;20042;-60
2023/05/31 01:42:32;;;;;;;12.25;8.32;;;;;;;;;;5013324;28;20176;-59
2023/05/31 01:44:58;;;;;;;11.73;8.13;;;;;;;;;;4995246;28;20530;-60
2023/05/31 01:47:24;;;;;;;12.65;8.32;;;;;;;;;;5011969;28;20417;-60
2023/05/31 01:49:50;;;;;;;15.30;8.52;;;;;;;;;;5011677;28;20034;-60
2023/05/31 01:52:17;;;;;;;11.85;8.70;;;;;;;;;;5012935;28;20494;-59
2023/05/31 01:54:42;;;;;;;14.55;9.13;;;;;;;;;;5011668;28;20029;-59
2023/05/31 01:57:09;;;;;;;14.70;8.73;;;;;;;;;;5009962;28;20060;-60
2023/05/31 01:59:35;;;;;;;12.63;8.57;;;;;;;;;;5012896;28;20061;-60
2023/05/31 02:02:03;;;;;;;12.93;8.75;;;;;;;;;;5012219;28;20478;-60
2023/05/31 02:04:28;;;;;;;14.73;9.75;;;;;;;;;;5011678;28;20061;-60
2023/05/31 02:06:53;;;;;;;17.15;9.43;;;;;;;;;;5013249;28;20383;-59
2023/05/31 02:09:21;;;;;;;14.90;9.52;;;;;;;;;;5012658;28;20041;-60
2023/05/31 02:11:46;;;;;;;12.95;8.93;;;;;;;;;;5011902;28;20518;-60
2023/05/31 02:14:11;;;;;;;15.93;9.50;;;;;;;;;;5012447;28;20053;-60
2023/05/31 02:16:37;;;;;;;17.73;9.65;;;;;;;;;;5013234;28;20036;-60
2023/05/31 02:19:03;;;;;;;14.68;9.25;;;;;;;;;;5012224;28;20042;-61
2023/05/31 02:21:28;;;;;;;14.30;9.43;;;;;;;;;;5012332;28;20030;-60
2023/05/31 02:23:54;;;;;;;18.23;9.25;;;;;;;;;;5009813;28;20088;-60
2023/05/31 02:26:21;;;;;;;14.95;9.32;;;;;;;;;;5004923;28;20034;-61
2023/05/31 02:28:47;;;;;;;14.80;9.77;;;;;;;;;;5008984;28;20042;-60
2023/05/31 02:31:12;;;;;;;14.23;9.60;;;;;;;;;;5006624;28;20018;-60
2023/05/31 02:33:40;;;;;;;15.60;10.02;;;;;;;;;;5010774;28;20065;-60
2023/05/31 02:36:06;;;;;;;15.05;9.77;;;;;;;;;;5011082;28;20033;-61
2023/05/31 02:38:31;;;;;;;16.65;10.10;;;;;;;;;;5012753;28;20529;-60
2023/05/31 02:40:57;;;;;;;15.63;10.18;;;;;;;;;;5012712;28;20467;-59
2023/05/31 02:43:22;;;;;;;15.18;9.98;;;;;;;;;;5013227;28;20076;-60
2023/05/31 02:45:47;;;;;;;17.35;10.30;;;;;;;;;;5013069;28;20029;-60
2023/05/31 02:48:13;;;;;;;17.98;10.38;;;;;;;;;;5011886;28;20547;-60
2023/05/31 02:50:38;;;;;;;17.90;10.25;;;;;;;;;;5011722;28;20113;-60
2023/05/31 02:53:04;;;;;;;16.17;10.75;;;;;;;;;;5009895;28;20092;-59
2023/05/31 02:55:30;;;;;;;19.25;10.95;;;;;;;;;;5012910;28;20026;-59
2023/05/31 02:57:56;;;;;;;19.58;10.95;;;;;;;;;;5008921;28;20112;-59
2023/05/31 03:00:22;;;;;;;19.92;11.50;;;;;;;;;;5011467;28;20125;-59
2023/05/31 03:02:47;;;;;;;18.00;11.38;;;;;;;;;;5007787;28;20041;-60
2023/05/31 03:05:12;;;;;;;20.60;11.38;;;;;;;;;;5010501;28;20105;-60
2023/05/31 03:07:38;;;;;;;19.48;11.10;;;;;;;;;;5012160;28;20136;-59
2023/05/31 03:10:04;;;;;;;21.13;11.27;;;;;;;;;;5011643;28;20109;-59
2023/05/31 03:12:30;;;;;;;16.60;10.07;;;;;;;;;;5011419;28;20048;-60
2023/05/31 03:14:56;;;;;;;19.80;11.20;;;;;;;;;;5009658;28;20030;-59
2023/05/31 03:17:21;;;;;;;20.30;11.60;;;;;;;;;;5008699;28;20053;-59
2023/05/31 03:19:47;;;;;;;19.05;11.75;;;;;;;;;;5011359;28;20442;-59
2023/05/31 03:22:12;;;;;;;21.58;11.23;;;;;;;;;;5010774;28;20073;-59
2023/05/31 03:24:38;;;;;;;20.35;11.63;;;;;;;;;;5005518;28;20041;-59
2023/05/31 03:27:03;;;;;;;19.60;11.50;;;;;;;;;;5011331;28;20042;-60
2023/05/31 03:29:29;;;;;;;18.00;11.80;;;;;;;;;;5009952;28;20049;-60
2023/05/31 03:31:55;;;;;;;18.17;11.63;;;;;;;;;;5011864;28;20443;-60
2023/05/31 03:34:21;;;;;;;19.35;11.65;;;;;;;;;;5010895;28;20033;-60
2023/05/31 03:36:46;;;;;;;23.60;12.10;;;;;;;;;;5012022;28;20387;-59
2023/05/31 03:39:12;;;;;;;18.90;11.48;;;;;;;;;;5008196;28;20459;-60
2023/05/31 03:41:37;;;;;;;20.30;12.40;;;;;;;;;;5009862;28;20039;-59
2023/05/31 03:44:02;;;;;;;22.08;12.60;;;;;;;;;;5007143;28;20109;-60
2023/05/31 03:46:28;;;;;;;24.08;12.45;;;;;;;;;;5012166;28;20053;-60
2023/05/31 03:48:53;;;;;;;21.20;12.70;;;;;;;;;;5010617;28;20036;-59
2023/05/31 03:51:19;;;;;;;19.95;11.85;;;;;;;;;;5009194;28;20532;-59
2023/05/31 03:53:44;;;;;;;21.13;11.98;;;;;;;;;;5010484;28;20045;-59
2023/05/31 03:56:10;;;;;;;22.15;12.13;;;;;;;;;;5009498;28;20549;-60
2023/05/31 03:58:35;;;;;;;20.00;12.35;;;;;;;;;;4997458;28;20070;-60
2023/05/31 04:01:02;;;;;;;22.60;11.85;;;;;;;;;;5004790;28;20116;-60
2023/05/31 04:03:28;;;;;;;18.52;11.15;;;;;;;;;;5011264;28;20044;-60
2023/05/31 04:05:53;;;;;;;23.40;12.75;;;;;;;;;;5009598;28;20034;-60
2023/05/31 04:08:18;;;;;;;19.73;11.82;;;;;;;;;;5009249;28;20044;-59
2023/05/31 04:10:44;;;;;;;19.42;11.50;;;;;;;;;;5011315;28;20542;-60
2023/05/31 04:13:09;;;;;;;21.27;11.55;;;;;;;;;;5008766;28;20036;-59
2023/05/31 04:15:35;;;;;;;22.13;11.60;;;;;;;;;;5011463;28;20109;-59
2023/05/31 04:18:01;;;;;;;18.67;11.45;;;;;;;;;;5007518;28;20521;-60
2023/05/31 04:20:27;;;;;;;23.20;12.68;;;;;;;;;;5011676;28;20352;-60
2023/05/31 04:22:53;;;;;;;20.38;11.98;;;;;;;;;;5009224;28;20041;-60
2023/05/31 04:25:19;;;;;;;19.08;11.75;;;;;;;;;;5008349;28;20332;-60
2023/05/31 04:27:45;;;;;;;19.60;11.85;;;;;;;;;;5011416;28;20042;-60
2023/05/31 04:30:10;;;;;;;21.45;11.68;;;;;;;;;;5013411;28;20111;-61
2023/05/31 04:32:36;;;;;;;22.27;11.77;;;;;;;;;;5015959;28;20041;-61
2023/05/31 04:35:06;;;;;;;20.52;11.48;;;;;;;;;;5013482;28;20440;-60
2023/05/31 04:37:32;;;;;;;19.15;11.32;;;;;;;;;;5012868;28;20104;-60
2023/05/31 04:39:59;;;;;;;19.70;11.13;;;;;;;;;;5015667;28;20046;-60
2023/05/31 04:42:27;;;;;;;21.85;11.20;;;;;;;;;;5013291;28;20404;-59
2023/05/31 04:44:57;;;;;;;21.77;11.18;;;;;;;;;;5015182;28;20034;-60
2023/05/31 04:47:28;;;;;;;19.08;10.75;;;;;;;;;;5013194;28;20037;-60
2023/05/31 04:49:57;;;;;;;;;;;;;;;;;;5015785;28;20427;-59
2023/05/31 04:52:32;;;;;;;18.45;10.55;;;;;;;;;;5014824;28;19909;-59
2023/05/31 04:55:01;;;;;;;17.88;11.15;;;;;;;;;;5015383;28;20037;-60
2023/05/31 04:57:28;;;;;;;17.88;10.88;;;;;;;;;;5013428;28;20033;-60
2023/05/31 04:59:56;;;;;;;21.10;11.10;;;;;;;;;;5015557;28;20083;-60
2023/05/31 05:02:21;;;;;;;16.75;10.40;;;;;;;;;;5013110;28;20061;-59
2023/05/31 05:04:47;;;;;;;20.65;11.70;;;;;;;;;;5015396;28;20034;-59
2023/05/31 05:07:13;;;;;;;17.08;10.65;;;;;;;;;;5014372;28;20037;-59
2023/05/31 05:09:39;;;;;;;31.45;11.75;;;;;;;;;;5007188;28;20046;-59
2023/05/31 05:12:05;;;;;;;16.83;10.48;;;;;;;;;;5013372;28;20041;-59
2023/05/31 05:14:31;;;;;;;15.20;9.27;;;;;;;;;;5006711;28;20054;-59
2023/05/31 05:16:56;;;;;;;17.42;10.38;;;;;;;;;;4996438;28;20116;-58
2023/05/31 05:19:22;;;;;;;21.50;9.95;;;;;;;;;;5009540;28;20018;-62
2023/05/31 05:21:47;;;;;;;17.60;9.18;;;;;;;;;;5014943;28;20030;-63
2023/05/31 05:24:13;;;;;;;16.70;9.10;;;;;;;;;;5011121;28;20073;-63
2023/05/31 05:26:38;;;;;;;15.98;8.13;;;;;;;;;;5014941;28;20438;-62
2023/05/31 05:29:04;;;;;;;19.92;9.93;;;;;;;;;;5014084;28;20034;-60
2023/05/31 05:31:30;;;;;;;17.83;9.82;;;;;;;;;;5012618;28;20030;-60
2023/05/31 05:33:55;;;;;;;18.40;9.98;;;;;;;;;;5011138;28;20455;-61
2023/05/31 05:36:21;;;;;;;18.67;9.95;;;;;;;;;;5007089;28;20076;-60
2023/05/31 05:38:46;;;;;;;16.73;9.65;;;;;;;;;;5013529;28;20044;-60
2023/05/31 05:41:12;;;;;;;17.00;10.25;;;;;;;;;;5012035;28;20080;-60
2023/05/31 05:43:39;;;;;;;20.55;10.43;;;;;;;;;;5013308;28;20022;-60
2023/05/31 05:46:04;;;;;;;15.82;9.75;;;;;;;;;;5011754;28;20068;-60
2023/05/31 05:48:29;;;;;;;19.98;10.43;;;;;;;;;;5010030;28;20479;-60
2023/05/31 05:50:55;;;;;;;18.35;10.43;;;;;;;;;;5002750;28;20041;-60
2023/05/31 05:53:20;;;;;;;17.27;10.00;;;;;;;;;;5012836;28;20376;-60
2023/05/31 05:55:51;;;;;;;15.48;9.65;;;;;;;;;;5005135;28;20483;-60
2023/05/31 05:58:16;;;;;;;20.52;10.63;;;;;;;;;;5011255;28;20131;-61
2023/05/31 06:00:44;;;;;;;16.60;9.18;;;;;;;;;;5013487;28;20487;-60
2023/05/31 06:03:10;;;;;;;18.77;10.27;;;;;;;;;;5012717;28;20382;-61
2023/05/31 06:05:35;;;;;;;13.50;9.23;;;;;;;;;;4998273;28;20034;-61
2023/05/31 06:08:01;;;;;;;17.85;10.15;;;;;;;;;;5013846;28;20037;-61
2023/05/31 06:10:26;;;;;;;19.83;9.35;;;;;;;;;;5013512;28;20438;-60
2023/05/31 06:12:52;;;;;;;17.92;9.95;;;;;;;;;;5012954;28;20034;-60
2023/05/31 06:15:17;;;;;;;16.58;9.65;;;;;;;;;;5011592;28;20042;-60
2023/05/31 06:17:43;;;;;;;17.23;9.93;;;;;;;;;;5014232;28;20026;-60
2023/05/31 06:20:10;;;;;;;18.80;10.23;;;;;;;;;;5012937;28;20088;-60
2023/05/31 06:22:36;;;;;;;17.83;9.02;;;;;;;;;;5007376;28;20096;-61
2023/05/31 06:25:02;;;;;;;14.93;9.52;;;;;;;;;;5006563;28;20027;-61
2023/05/31 06:27:27;;;;;;;16.98;9.65;;;;;;;;;;5011036;28;20025;-60
2023/05/31 06:29:57;;;;;;;17.00;9.35;;;;;;;;;;5000084;28;20364;-61
2023/05/31 06:32:30;;;;;;;16.88;9.55;;;;;;;;;;4993100;28;20034;-60
2023/05/31 06:34:55;;;;;;;20.83;8.55;;;;;;;;;;5010531;28;20037;-62
2023/05/31 06:37:21;;;;;;;13.77;8.85;;;;;;;;;;5011317;28;20541;-60
2023/05/31 06:39:47;;;;;;;17.25;9.23;;;;;;;;;;5012390;28;20141;-61
2023/05/31 06:42:13;;;;;;;14.23;8.65;;;;;;;;;;5002050;28;20475;-60
2023/05/31 06:44:40;;;;;;;17.02;8.90;;;;;;;;;;4994019;28;20061;-60
2023/05/31 06:47:06;;;;;;;16.00;9.07;;;;;;;;;;5004956;28;20041;-62
2023/05/31 06:49:31;;;;;;;15.20;8.40;;;;;;;;;;5006471;28;20037;-60
2023/05/31 06:51:57;;;;;;;18.13;8.90;;;;;;;;;;5009858;28;20482;-60
2023/05/31 06:54:23;;;;;;;17.52;8.73;;;;;;;;;;5011320;28;20026;-62
2023/05/31 06:56:48;;;;;;;17.02;9.30;;;;;;;;;;5006656;28;20025;-60
2023/05/31 06:59:14;;;;;;;15.30;9.00;;;;;;;;;;4992817;28;20026;-61
2023/05/31 07:01:39;;;;;;;15.02;8.85;;;;;;;;;;5003123;28;20030;-61
2023/05/31 07:04:04;;;;;;;20.42;8.77;;;;;;;;;;5012108;28;20525;-61
2023/05/31 07:06:30;;;;;;;15.30;9.00;;;;;;;;;;5012859;28;20038;-60
2023/05/31 07:08:55;;;;;;;15.77;8.88;;;;;;;;;;5013152;28;20478;-60
2023/05/31 07:11:21;;;;;;;15.00;8.73;;;;;;;;;;5012190;28;20474;-61
2023/05/31 07:13:47;;;;;;;19.20;8.82;;;;;;;;;;5012904;28;20045;-61
2023/05/31 07:16:13;;;;;;;15.55;8.77;;;;;;;;;;4999197;28;20049;-61
2023/05/31 07:18:38;;;;;;;16.52;8.40;;;;;;;;;;5009184;28;20527;-61
2023/05/31 07:21:03;;;;;;;15.63;8.25;;;;;;;;;;5006040;28;20075;-62
2023/05/31 07:23:29;;;;;;;17.63;8.25;;;;;;;;;;5011568;28;20045;-61
2023/05/31 07:25:57;;;;;;;15.48;8.82;;;;;;;;;;4992941;28;20053;-60
2023/05/31 07:28:22;;;;;;;14.52;8.18;;;;;;;;;;4992294;28;20026;-60
2023/05/31 07:30:47;;;;;;;13.95;7.88;;;;;;;;;;5010483;28;20042;-62
2023/05/31 07:33:13;;;;;;;15.63;8.00;;;;;;;;;;5011786;28;20041;-60
2023/05/31 07:35:38;;;;;;;14.25;8.07;;;;;;;;;;5012231;28;20112;-60
2023/05/31 07:38:03;;;;;;;14.75;7.30;;;;;;;;;;5011050;28;20018;-60
2023/05/31 07:40:29;;;;;;;12.77;7.65;;;;;;;;;;5006730;28;20398;-60
2023/05/31 07:42:54;;;;;;;11.55;7.25;;;;;;;;;;4992986;28;20113;-59
2023/05/31 07:45:20;;;;;;;13.63;7.40;;;;;;;;;;4991920;28;20193;-60
2023/05/31 07:47:45;;;;;;;16.13;7.20;;;;;;;;;;4995894;28;20077;-59
2023/05/31 07:50:11;;;;;;;12.05;7.05;;;;;;;;;;5010487;28;20064;-60
2023/05/31 07:52:36;;;;;;;14.65;6.82;;;;;;;;;;5012178;28;20030;-59
2023/05/31 07:55:02;;;;;;;12.68;6.93;;;;;;;;;;5011748;28;20038;-60
2023/05/31 07:57:28;;;;;;;13.32;7.20;;;;;;;;;;5011862;28;20029;-59
2023/05/31 07:59:53;;;;;;;12.38;6.75;;;;;;;;;;4999168;28;20026;-60
2023/05/31 08:02:19;;;;;;;13.80;6.82;;;;;;;;;;4991144;28;20046;-59
2023/05/31 08:04:44;;;;;;;11.05;6.57;;;;;;;;;;4995793;28;20038;-60
2023/05/31 08:07:10;;;;;;;12.50;7.20;;;;;;;;;;5011246;28;20112;-60
2023/05/31 08:09:35;;;;;;;10.85;6.22;;;;;;;;;;5005671;28;20486;-60
2023/05/31 08:12:02;;;;;;;13.85;6.50;;;;;;;;;;5007468;28;20034;-60
2023/05/31 08:14:28;;;;;;;12.18;6.25;;;;;;;;;;5010063;28;20030;-59
2023/05/31 08:16:54;;;;;;;12.25;6.43;;;;;;;;;;5009132;28;20030;-60
2023/05/31 08:19:19;;;;;;;9.30;5.60;;;;;;;;;;4990313;28;20547;-61
2023/05/31 08:21:46;;;;;;;11.88;5.80;;;;;;;;;;4996391;28;20038;-60
2023/05/31 08:24:12;;;;;;;11.52;6.15;;;;;;;;;;5009211;28;20121;-60
2023/05/31 08:26:37;;;;;;;11.40;6.05;;;;;;;;;;5011829;28;20109;-61
2023/05/31 08:29:03;;;;;;;11.52;5.60;;;;;;;;;;5011422;28;20034;-62
2023/05/31 08:31:28;;;;;;;11.07;5.45;;;;;;;;;;5007482;28;20042;-61
2023/05/31 08:33:58;;;;;;;14.63;5.65;;;;;;;;;;5008083;28;20126;-60
2023/05/31 08:36:25;;;;;;;11.73;5.38;;;;;;;;;;5011155;28;20033;-60
2023/05/31 08:38:50;;;;;;;10.82;5.15;;;;;;;;;;5008576;28;20117;-60
2023/05/31 08:41:17;;;;;;;8.98;5.75;;;;;;;;;;5011079;28;20137;-61
2023/05/31 08:43:43;;;;;;;10.65;5.30;;;;;;;;;;5007491;28;20120;-60
2023/05/31 08:46:10;;;;;;;13.30;5.07;;;;;;;;;;5009502;28;20033;-61
2023/05/31 08:48:40;;;;;;;11.40;5.15;;;;;;;;;;5010620;28;20428;-61
2023/05/31 08:51:06;;;;;;;;;;;;;;;;;;5010719;28;20041;-61
2023/05/31 08:53:34;;;;;;;13.25;4.80;;;;;;;;;;5011747;28;19967;-60
2023/05/31 08:56:04;;;;;;;19.38;5.65;;;;;;;;;;5006280;28;20112;-60
2023/05/31 08:58:30;;;;;;;11.82;4.88;;;;;;;;;;5007495;28;20034;-60
2023/05/31 09:00:55;;;;;;;8.93;4.40;;;;;;;;;;5010109;28;20137;-61
2023/05/31 09:03:22;;;;;;;8.15;4.10;;;;;;;;;;5010414;28;20045;-60
2023/05/31 09:05:48;;;;;;;7.95;4.63;;;;;;;;;;5011611;28;20038;-60
2023/05/31 09:08:14;;;;;;;9.60;4.75;;;;;;;;;;5010497;28;20037;-62
2023/05/31 09:10:40;;;;;;;8.25;4.50;;;;;;;;;;5008128;28;20029;-60
2023/05/31 09:13:06;;;;;;;11.98;4.40;;;;;;;;;;5008471;28;20041;-62
2023/05/31 09:15:34;;;;;;;13.80;4.72;;;;;;;;;;4998729;28;20045;-61
2023/05/31 09:18:15;;;;;;;9.00;4.43;;;;;;;;;;5012401;28;20077;-61
2023/05/31 09:20:41;;;;;;;10.10;4.57;;;;;;;;;;5013400;28;20058;-60
2023/05/31 09:23:08;;;;;;;10.65;4.63;;;;;;;;;;5009154;28;20062;-61
2023/05/31 09:26:06;;;;;;;9.10;4.20;;;;;;;;;;5011160;28;20486;-60
2023/05/31 09:28:31;;;;;;;10.82;4.20;;;;;;;;;;5014198;28;20053;-60
2023/05/31 09:31:06;;;;;;;9.48;4.10;;;;;;;;;;5002697;28;20041;-61
2023/05/31 09:33:43;;;;;;;8.38;4.20;;;;;;;;;;5011135;28;20057;-61
2023/05/31 09:36:09;;;;;;;9.07;4.18;;;;;;;;;;5013904;28;20030;-61
2023/05/31 09:38:36;;;;;;;9.02;3.80;;;;;;;;;;5014522;28;20363;-61
2023/05/31 09:41:15;;;;;;;10.93;3.80;;;;;;;;;;5014575;28;20056;-61
2023/05/31 09:43:45;;;;;;;10.07;3.60;;;;;;;;;;5014348;28;20358;-61
2023/05/31 09:46:18;;;;;;;9.40;4.18;;;;;;;;;;5013794;28;20034;-61
2023/05/31 09:48:45;;;;;;;8.65;3.78;;;;;;;;;;5014195;28;20482;-60
2023/05/31 09:51:12;;;;;;;9.20;4.25;;;;;;;;;;5007591;28;20360;-60
2023/05/31 09:53:44;;;;;;;8.88;3.67;;;;;;;;;;5014527;28;20057;-60
2023/05/31 09:56:11;;;;;;;7.50;3.13;;;;;;;;;;5013524;28;20034;-61
2023/05/31 09:58:37;;;;;;;6.72;2.75;;;;;;;;;;5001690;28;20383;-60
2023/05/31 10:01:03;;;;;;;5.88;3.00;;;;;;;;;;4994453;28;20468;-61
2023/05/31 10:03:31;;;;;;;7.80;3.42;;;;;;;;;;4994767;28;20061;-60
2023/05/31 10:05:56;;;;;;;9.38;3.33;;;;;;;;;;4983856;28;20061;-61
2023/05/31 10:08:23;;;;;;;9.77;3.40;;;;;;;;;;5004362;28;20608;-60
2023/05/31 10:10:49;;;;;;;6.97;2.72;;;;;;;;;;4994632;28;20034;-60
2023/05/31 10:13:17;;;;;;;8.52;3.05;;;;;;;;;;4992130;28;20092;-64
2023/05/31 10:15:45;;;;;;;7.88;3.22;;;;;;;;;;4994141;28;20030;-65
2023/05/31 10:18:14;;;;;;;9.00;3.20;;;;;;;;;;4998167;28;20101;-63
2023/05/31 10:20:52;;;;;;;6.32;2.67;;;;;;;;;;5011608;28;20033;-65
2023/05/31 10:23:23;;;;;;;7.35;3.08;;;;;;;;;;4993428;28;20038;-60
2023/05/31 10:26:15;;;;;;;8.07;3.08;;;;;;;;;;4994048;28;20034;-60
2023/05/31 10:29:03;;;;;;;6.85;2.90;;;;;;;;;;5013645;28;20034;-65
2023/05/31 10:31:33;;;;;;;5.03;2.70;;;;;;;;;;5013302;28;20026;-66
2023/05/31 10:34:21;;;;;;;6.43;2.90;;;;;;;;;;5012643;28;20406;-65
2023/05/31 10:36:47;;;;;;;7.38;2.70;;;;;;;;;;5011713;28;20057;-66
2023/05/31 10:39:30;;;;;;;5.05;2.40;;;;;;;;;;5011363;28;20037;-63
2023/05/31 10:42:20;;;;;;;8.27;2.50;;;;;;;;;;5011109;28;20113;-64
2023/05/31 10:44:58;;;;;;;6.80;2.42;;;;;;;;;;5012419;28;20082;-65
2023/05/31 10:47:32;;;;;;;6.93;2.78;;;;;;;;;;5009541;28;20030;-64
2023/05/31 10:49:59;;;;;;;5.15;2.75;;;;;;;;;;5011448;28;20127;-64
2023/05/31 10:52:30;;;;;;;8.23;2.65;;;;;;;;;;5012241;28;20140;-62
2023/05/31 10:55:15;;;;;;;7.63;2.70;;;;;;;;;;5012476;28;20033;-65
2023/05/31 10:57:40;;;;;;;7.03;2.45;;;;;;;;;;5012433;28;20042;-65
2023/05/31 11:00:07;;;;;;;5.30;2.50;;;;;;;;;;5012224;28;20034;-65
2023/05/31 11:02:33;;;;;;;5.97;2.80;;;;;;;;;;5012941;28;20080;-66
2023/05/31 11:05:18;;;;;;;5.97;2.40;;;;;;;;;;5013475;28;20040;-66
2023/05/31 11:07:43;;;;;;;6.90;2.53;;;;;;;;;;5003636;28;20085;-66
2023/05/31 11:10:10;;;;;;;7.25;2.67;;;;;;;;;;4992261;28;20034;-66
2023/05/31 11:12:37;;;;;;;6.80;2.65;;;;;;;;;;4993997;28;20034;-65
2023/05/31 11:15:04;;;;;;;5.57;2.45;;;;;;;;;;4993427;28;20042;-63
2023/05/31 11:17:39;;;;;;;5.63;2.35;;;;;;;;;;4998177;28;20066;-64
2023/05/31 11:20:05;;;;;;;4.82;2.30;;;;;;;;;;5001928;28;20030;-64
2023/05/31 11:22:31;;;;;;;5.10;2.50;;;;;;;;;;5012515;28;20049;-66
2023/05/31 11:25:00;;;;;;;4.68;2.53;;;;;;;;;;4996834;28;20030;-65
2023/05/31 11:27:37;;;;;;;4.70;2.60;;;;;;;;;;4991888;28;21009;-65
2023/05/31 11:30:06;;;;;;;6.72;2.40;;;;;;;;;;5006384;28;20056;-64
2023/05/31 11:32:35;;;;;;;6.07;2.55;;;;;;;;;;4997476;28;20121;-65
2023/05/31 11:35:06;;;;;;;8.07;2.40;;;;;;;;;;4997779;28;20165;-65
2023/05/31 11:37:37;;;;;;;4.93;2.00;;;;;;;;;;5012262;28;20030;-65
2023/05/31 11:40:06;;;;;;;4.85;2.42;;;;;;;;;;5012205;28;20054;-64
2023/05/31 11:42:35;;;;;;;6.30;2.70;;;;;;;;;;5009724;28;20157;-66
2023/05/31 11:45:05;;;;;;;5.95;2.50;;;;;;;;;;5006709;28;20038;-63
2023/05/31 11:47:56;;;;;;;5.60;2.20;;;;;;;;;;4994652;28;20415;-62
2023/05/31 11:50:23;;;;;;;5.07;2.58;;;;;;;;;;4996863;28;20034;-65
2023/05/31 11:52:49;;;;;;;6.35;2.40;;;;;;;;;;5012009;28;20041;-65
2023/05/31 11:55:17;;;;;;;4.90;2.20;;;;;;;;;;5011496;28;20029;-66
2023/05/31 11:57:44;;;;;;;6.55;2.28;;;;;;;;;;5012356;28;20117;-67
2023/05/31 12:00:11;;;;;;;4.85;2.22;;;;;;;;;;5011262;28;20036;-65
2023/05/31 12:02:43;;;;;;;6.22;2.42;;;;;;;;;;5008733;28;20046;-64
2023/05/31 12:05:12;;;;;;;5.80;2.35;;;;;;;;;;5011296;28;20045;-64
2023/05/31 12:07:38;;;;;;;4.88;2.60;;;;;;;;;;5011307;28;20037;-67
2023/05/31 12:10:07;;;;;;;6.35;2.30;;;;;;;;;;5011393;28;20030;-64
2023/05/31 12:12:33;;;;;;;5.75;2.33;;;;;;;;;;5005022;28;20066;-66
2023/05/31 12:15:01;;;;;;;5.15;2.10;;;;;;;;;;4998751;28;20069;-65
2023/05/31 12:17:30;;;;;;;6.03;2.53;;;;;;;;;;5011341;28;20042;-66
2023/05/31 12:19:55;;;;;;;6.53;2.20;;;;;;;;;;5011021;28;20040;-65
2023/05/31 12:22:21;;;;;;;5.57;2.38;;;;;;;;;;5008874;28;20320;-67
2023/05/31 12:24:51;;;;;;;6.97;2.30;;;;;;;;;;5009754;28;20061;-67
2023/05/31 12:27:21;;;;;;;5.32;2.10;;;;;;;;;;5010919;28;20033;-65
2023/05/31 12:29:46;;;;;;;;;;;;;;;;;;5012233;28;20124;-67
2023/05/31 12:32:11;;;;;;;5.45;2.35;;;;;;;;;;5009191;28;20417;-64
2023/05/31 12:34:38;;;;;;;3.97;2.10;;;;;;;;;;5009802;28;20030;-66
2023/05/31 12:37:08;;;;;;;8.45;2.50;;;;;;;;;;5010442;28;20060;-65
2023/05/31 12:39:34;;;;;;;4.95;2.20;;;;;;;;;;5011366;28;20045;-66
2023/05/31 12:42:01;;;;;;;5.35;2.10;;;;;;;;;;5011744;28;20030;-65
2023/05/31 12:44:28;;;;;;;6.30;2.05;;;;;;;;;;5003402;28;20088;-66
2023/05/31 12:47:00;;;;;;;4.53;2.50;;;;;;;;;;5003742;28;20033;-65
2023/05/31 12:49:31;;;;;;;6.28;2.22;;;;;;;;;;5013083;28;20038;-65
2023/05/31 12:52:01;;;;;;;4.35;2.00;;;;;;;;;;5014956;28;20065;-65
2023/05/31 12:54:27;;;;;;;6.47;2.47;;;;;;;;;;5012848;28;20120;-65
2023/05/31 12:56:53;;;;;;;6.53;2.20;;;;;;;;;;5004447;28;20034;-65
2023/05/31 12:59:19;;;;;;;3.72;2.13;;;;;;;;;;4994632;28;20045;-66
2023/05/31 13:01:45;;;;;;;4.65;2.40;;;;;;;;;;4995632;28;20031;-65
2023/05/31 13:04:11;;;;;;;5.30;2.38;;;;;;;;;;5005967;28;20029;-64
2023/05/31 13:06:40;;;;;;;4.05;2.05;;;;;;;;;;5012667;28;20070;-65
2023/05/31 13:09:06;;;;;;;8.30;2.20;;;;;;;;;;5014544;28;20386;-65
2023/05/31 13:11:36;;;;;;;5.97;2.60;;;;;;;;;;5005626;28;20487;-66
2023/05/31 13:14:07;;;;;;;6.30;2.38;;;;;;;;;;4995596;28;20117;-64
2023/05/31 13:16:33;;;;;;;6.15;2.30;;;;;;;;;;5008033;28;20038;-63
2023/05/31 13:18:59;;;;;;;6.43;2.40;;;;;;;;;;4999116;28;20128;-63
2023/05/31 13:21:25;;;;;;;5.55;2.30;;;;;;;;;;5007300;28;20042;-62
2023/05/31 13:23:51;;;;;;;5.93;2.20;;;;;;;;;;4995081;28;20026;-63
2023/05/31 13:26:17;;;;;;;6.07;2.38;;;;;;;;;;4995879;28;20045;-63
2023/05/31 13:28:42;;;;;;;5.97;2.10;;;;;;;;;;5008677;28;20037;-64
2023/05/31 13:31:08;;;;;;;6.63;2.40;;;;;;;;;;5008849;28;20108;-64
2023/05/31 13:33:33;;;;;;;4.53;2.20;;;;;;;;;;5013353;28;20486;-63
2023/05/31 13:35:59;;;;;;;6.70;1.98;;;;;;;;;;5014688;28;20038;-63
2023/05/31 13:38:25;;;;;;;6.15;2.20;;;;;;;;;;5013327;28;20105;-65
2023/05/31 13:40:51;;;;;;;6.00;2.30;;;;;;;;;;5014225;28;20402;-63
2023/05/31 13:43:22;;;;;;;7.43;2.28;;;;;;;;;;5013722;28;20455;-63
2023/05/31 13:45:47;;;;;;;5.22;2.30;;;;;;;;;;5007433;28;20102;-64
2023/05/31 13:48:13;;;;;;;5.65;2.40;;;;;;;;;;5012366;28;20037;-65
2023/05/31 13:50:40;;;;;;;5.70;2.30;;;;;;;;;;5010748;28;20327;-61
2023/05/31 13:53:05;;;;;;;6.40;2.13;;;;;;;;;;5008824;28;20103;-66
2023/05/31 13:55:32;;;;;;;6.03;2.08;;;;;;;;;;5011561;28;20455;-63
2023/05/31 13:57:57;;;;;;;5.18;2.35;;;;;;;;;;5013061;28;20049;-65
2023/05/31 14:00:23;;;;;;;7.57;2.15;;;;;;;;;;5009584;28;20034;-64
2023/05/31 14:02:49;;;;;;;8.07;2.35;;;;;;;;;;5009968;28;20030;-63
2023/05/31 14:05:15;;;;;;;7.10;2.40;;;;;;;;;;5009668;28;20045;-62
2023/05/31 14:07:40;;;;;;;6.05;2.40;;;;;;;;;;5009502;28;20033;-60
2023/05/31 14:10:07;;;;;;;5.97;2.50;;;;;;;;;;5010872;28;20048;-60
2023/05/31 14:12:32;;;;;;;5.80;2.35;;;;;;;;;;5009998;28;20042;-61
2023/05/31 14:14:57;;;;;;;8.18;2.13;;;;;;;;;;5012807;28;20037;-60
2023/05/31 14:17:23;;;;;;;5.88;2.30;;;;;;;;;;5013045;28;20045;-60
2023/05/31 14:19:48;;;;;;;7.03;2.33;;;;;;;;;;5010940;28;20029;-60
2023/05/31 14:22:14;;;;;;;7.35;2.40;;;;;;;;;;5011933;28;20076;-60
2023/05/31 14:24:40;;;;;;;4.03;2.35;;;;;;;;;;5012110;28;20058;-60
2023/05/31 14:27:06;;;;;;;7.40;2.50;;;;;;;;;;5010935;28;20030;-61
2023/05/31 14:29:32;;;;;;;5.38;2.10;;;;;;;;;;5011827;28;20080;-60
2023/05/31 14:31:57;;;;;;;6.07;2.50;;;;;;;;;;5012897;28;20391;-61
2023/05/31 14:34:24;;;;;;;5.50;2.53;;;;;;;;;;5011041;28;20034;-61